Terminal Aerodrome Forecast
Issued by NWS

Home | Current Version | Previous Version | Text Only | Print | Product List | Glossary On
Versions: 1 2 3 4 5 6 7 8 9 10 11 12 13 14 15 16
000
FTUS42 KFFC 010544
TAFPDK
TAF
KPDK 010544Z 0106/0206 00000KT P6SM SCT100
      TEMPO 0106/0107 12010G16KT -TSRA BKN060CB
     FM011400 16004KT P6SM FEW040
     FM011600 20005KT P6SM SCT050 PROB30 0120/0124 6SM TSRA BKN040CB
     FM020100 00000KT P6SM SCT100=

USA.gov is the U.S. government's official web portal to all federal, state and local government web resources and services.